sensor_id;sensor_type;location;lat;lon;timestamp;P1;durP1;ratioP1;P2;durP2;ratioP2
11699;SDS011;5906;51.660;6.674;2023-04-30T00:00:01;15.50;;;10.53;;
11699;SDS011;5906;51.660;6.674;2023-04-30T00:02:28;14.67;;;10.07;;
11699;SDS011;5906;51.660;6.674;2023-04-30T00:04:55;13.50;;;10.27;;
11699;SDS011;5906;51.660;6.674;2023-04-30T00:07:22;15.37;;;10.40;;
11699;SDS011;5906;51.660;6.674;2023-04-30T00:09:49;15.47;;;10.33;;
11699;SDS011;5906;51.660;6.674;2023-04-30T00:12:16;19.57;;;10.00;;
11699;SDS011;5906;51.660;6.674;2023-04-30T00:14:43;14.43;;;10.13;;
11699;SDS011;5906;51.660;6.674;2023-04-30T00:17:10;18.67;;;11.07;;
11699;SDS011;5906;51.660;6.674;2023-04-30T00:19:37;18.33;;;10.23;;
11699;SDS011;5906;51.660;6.674;2023-04-30T00:22:04;15.03;;;9.50;;
11699;SDS011;5906;51.660;6.674;2023-04-30T00:24:32;13.67;;;10.13;;
11699;SDS011;5906;51.660;6.674;2023-04-30T00:26:58;14.90;;;10.77;;
11699;SDS011;5906;51.660;6.674;2023-04-30T00:29:26;14.97;;;10.50;;
11699;SDS011;5906;51.660;6.674;2023-04-30T00:31:52;14.07;;;10.03;;
11699;SDS011;5906;51.660;6.674;2023-04-30T00:34:19;14.97;;;10.00;;
11699;SDS011;5906;51.660;6.674;2023-04-30T00:36:46;14.80;;;10.03;;
11699;SDS011;5906;51.660;6.674;2023-04-30T00:39:28;15.93;;;10.60;;
11699;SDS011;5906;51.660;6.674;2023-04-30T00:41:54;14.00;;;9.40;;
11699;SDS011;5906;51.660;6.674;2023-04-30T00:44:21;17.00;;;10.80;;
11699;SDS011;5906;51.660;6.674;2023-04-30T00:46:48;14.50;;;10.50;;
11699;SDS011;5906;51.660;6.674;2023-04-30T00:49:15;15.40;;;10.67;;
11699;SDS011;5906;51.660;6.674;2023-04-30T00:51:42;14.10;;;10.80;;
11699;SDS011;5906;51.660;6.674;2023-04-30T00:54:10;14.53;;;10.83;;
11699;SDS011;5906;51.660;6.674;2023-04-30T00:56:38;17.30;;;11.17;;
11699;SDS011;5906;51.660;6.674;2023-04-30T00:59:06;14.00;;;9.67;;
11699;SDS011;5906;51.660;6.674;2023-04-30T01:01:33;18.00;;;11.00;;
11699;SDS011;5906;51.660;6.674;2023-04-30T01:04:00;14.60;;;10.63;;
11699;SDS011;5906;51.660;6.674;2023-04-30T01:06:27;14.27;;;9.57;;
11699;SDS011;5906;51.660;6.674;2023-04-30T01:08:54;17.40;;;10.37;;
11699;SDS011;5906;51.660;6.674;2023-04-30T01:14:29;15.00;;;10.40;;
11699;SDS011;5906;51.660;6.674;2023-04-30T01:17:37;15.30;;;11.03;;
11699;SDS011;5906;51.660;6.674;2023-04-30T01:20:03;16.73;;;11.63;;
11699;SDS011;5906;51.660;6.674;2023-04-30T01:22:41;14.07;;;9.50;;
11699;SDS011;5906;51.660;6.674;2023-04-30T01:30:30;16.13;;;10.00;;
11699;SDS011;5906;51.660;6.674;2023-04-30T01:32:58;17.30;;;11.80;;
11699;SDS011;5906;51.660;6.674;2023-04-30T01:41:25;18.03;;;11.23;;
11699;SDS011;5906;51.660;6.674;2023-04-30T01:46:29;16.63;;;11.10;;
11699;SDS011;5906;51.660;6.674;2023-04-30T01:54:07;18.33;;;11.87;;
11699;SDS011;5906;51.660;6.674;2023-04-30T01:56:39;16.80;;;10.43;;
11699;SDS011;5906;51.660;6.674;2023-04-30T01:59:11;15.30;;;11.50;;
11699;SDS011;5906;51.660;6.674;2023-04-30T02:01:41;20.73;;;10.63;;
11699;SDS011;5906;51.660;6.674;2023-04-30T02:04:08;20.90;;;10.87;;
11699;SDS011;5906;51.660;6.674;2023-04-30T02:06:35;17.93;;;11.43;;
11699;SDS011;5906;51.660;6.674;2023-04-30T02:09:02;16.80;;;11.20;;
11699;SDS011;5906;51.660;6.674;2023-04-30T02:11:31;14.00;;;11.50;;
11699;SDS011;5906;51.660;6.674;2023-04-30T02:13:58;16.80;;;11.67;;
11699;SDS011;5906;51.660;6.674;2023-04-30T02:16:25;16.23;;;11.27;;
11699;SDS011;5906;51.660;6.674;2023-04-30T02:18:52;20.10;;;11.70;;
11699;SDS011;5906;51.660;6.674;2023-04-30T02:21:19;16.30;;;11.50;;
11699;SDS011;5906;51.660;6.674;2023-04-30T02:23:46;17.53;;;12.13;;
11699;SDS011;5906;51.660;6.674;2023-04-30T02:26:13;14.17;;;11.50;;
11699;SDS011;5906;51.660;6.674;2023-04-30T02:28:40;15.83;;;10.60;;
11699;SDS011;5906;51.660;6.674;2023-04-30T02:31:07;17.23;;;11.20;;
11699;SDS011;5906;51.660;6.674;2023-04-30T02:33:34;13.60;;;11.53;;
11699;SDS011;5906;51.660;6.674;2023-04-30T02:36:02;16.40;;;10.80;;
11699;SDS011;5906;51.660;6.674;2023-04-30T02:38:29;16.33;;;11.10;;
11699;SDS011;5906;51.660;6.674;2023-04-30T02:40:56;19.70;;;12.13;;
11699;SDS011;5906;51.660;6.674;2023-04-30T02:43:23;21.50;;;10.80;;
11699;SDS011;5906;51.660;6.674;2023-04-30T02:45:50;20.37;;;12.93;;
11699;SDS011;5906;51.660;6.674;2023-04-30T02:48:17;17.00;;;11.70;;
11699;SDS011;5906;51.660;6.674;2023-04-30T02:50:43;17.90;;;10.50;;
11699;SDS011;5906;51.660;6.674;2023-04-30T02:53:10;17.63;;;11.50;;
11699;SDS011;5906;51.660;6.674;2023-04-30T02:55:37;16.50;;;10.50;;
11699;SDS011;5906;51.660;6.674;2023-04-30T02:58:04;21.67;;;10.73;;
11699;SDS011;5906;51.660;6.674;2023-04-30T03:00:31;14.70;;;9.83;;
11699;SDS011;5906;51.660;6.674;2023-04-30T03:02:58;17.00;;;10.90;;
11699;SDS011;5906;51.660;6.674;2023-04-30T03:05:25;18.80;;;10.37;;
11699;SDS011;5906;51.660;6.674;2023-04-30T03:07:53;19.63;;;10.97;;
11699;SDS011;5906;51.660;6.674;2023-04-30T03:10:20;19.57;;;11.77;;
11699;SDS011;5906;51.660;6.674;2023-04-30T03:12:47;16.23;;;11.10;;
11699;SDS011;5906;51.660;6.674;2023-04-30T03:15:13;18.43;;;11.50;;
11699;SDS011;5906;51.660;6.674;2023-04-30T03:17:40;16.70;;;10.60;;
11699;SDS011;5906;51.660;6.674;2023-04-30T03:20:11;20.90;;;11.80;;
11699;SDS011;5906;51.660;6.674;2023-04-30T03:22:39;14.67;;;11.30;;
11699;SDS011;5906;51.660;6.674;2023-04-30T03:25:07;14.40;;;10.17;;
11699;SDS011;5906;51.660;6.674;2023-04-30T03:27:34;11.90;;;9.30;;
11699;SDS011;5906;51.660;6.674;2023-04-30T03:30:01;15.33;;;10.23;;
11699;SDS011;5906;51.660;6.674;2023-04-30T03:32:28;14.90;;;10.60;;
11699;SDS011;5906;51.660;6.674;2023-04-30T03:34:55;17.97;;;11.00;;
11699;SDS011;5906;51.660;6.674;2023-04-30T03:37:22;15.73;;;11.57;;
11699;SDS011;5906;51.660;6.674;2023-04-30T03:39:49;17.10;;;10.40;;
11699;SDS011;5906;51.660;6.674;2023-04-30T03:42:16;14.50;;;10.03;;
11699;SDS011;5906;51.660;6.674;2023-04-30T03:44:43;14.00;;;9.97;;
11699;SDS011;5906;51.660;6.674;2023-04-30T03:47:10;16.37;;;11.30;;
11699;SDS011;5906;51.660;6.674;2023-04-30T03:49:37;16.10;;;11.57;;
11699;SDS011;5906;51.660;6.674;2023-04-30T03:52:04;16.23;;;11.67;;
11699;SDS011;5906;51.660;6.674;2023-04-30T03:54:32;14.87;;;10.20;;
11699;SDS011;5906;51.660;6.674;2023-04-30T03:56:59;16.07;;;11.57;;
11699;SDS011;5906;51.660;6.674;2023-04-30T03:59:30;17.03;;;11.77;;
11699;SDS011;5906;51.660;6.674;2023-04-30T04:01:58;16.07;;;11.20;;
11699;SDS011;5906;51.660;6.674;2023-04-30T04:04:27;20.90;;;12.57;;
11699;SDS011;5906;51.660;6.674;2023-04-30T04:06:55;18.67;;;12.33;;
11699;SDS011;5906;51.660;6.674;2023-04-30T04:09:22;15.93;;;11.17;;
11699;SDS011;5906;51.660;6.674;2023-04-30T04:11:49;14.17;;;10.20;;
11699;SDS011;5906;51.660;6.674;2023-04-30T04:14:16;17.60;;;10.37;;
11699;SDS011;5906;51.660;6.674;2023-04-30T04:16:43;20.27;;;13.07;;
11699;SDS011;5906;51.660;6.674;2023-04-30T04:19:10;19.37;;;13.10;;
11699;SDS011;5906;51.660;6.674;2023-04-30T04:21:38;15.90;;;11.70;;
11699;SDS011;5906;51.660;6.674;2023-04-30T04:24:06;15.37;;;11.40;;
11699;SDS011;5906;51.660;6.674;2023-04-30T04:26:34;17.67;;;11.33;;
11699;SDS011;5906;51.660;6.674;2023-04-30T04:29:02;17.90;;;11.20;;
11699;SDS011;5906;51.660;6.674;2023-04-30T04:31:30;19.93;;;11.60;;
11699;SDS011;5906;51.660;6.674;2023-04-30T04:33:58;20.60;;;13.67;;
11699;SDS011;5906;51.660;6.674;2023-04-30T04:36:26;21.87;;;13.47;;
11699;SDS011;5906;51.660;6.674;2023-04-30T04:38:53;18.80;;;12.23;;
11699;SDS011;5906;51.660;6.674;2023-04-30T04:41:22;17.03;;;11.87;;
11699;SDS011;5906;51.660;6.674;2023-04-30T04:43:50;14.67;;;11.40;;
11699;SDS011;5906;51.660;6.674;2023-04-30T04:46:18;18.97;;;13.50;;
11699;SDS011;5906;51.660;6.674;2023-04-30T04:48:46;18.43;;;13.30;;
11699;SDS011;5906;51.660;6.674;2023-04-30T04:51:13;18.40;;;12.13;;
11699;SDS011;5906;51.660;6.674;2023-04-30T04:53:40;17.10;;;12.43;;
11699;SDS011;5906;51.660;6.674;2023-04-30T04:56:07;22.30;;;13.47;;
11699;SDS011;5906;51.660;6.674;2023-04-30T04:58:34;21.30;;;12.67;;
11699;SDS011;5906;51.660;6.674;2023-04-30T05:01:00;21.07;;;13.57;;
11699;SDS011;5906;51.660;6.674;2023-04-30T05:03:33;25.57;;;13.13;;
11699;SDS011;5906;51.660;6.674;2023-04-30T05:06:02;22.03;;;12.63;;
11699;SDS011;5906;51.660;6.674;2023-04-30T05:08:30;23.53;;;13.67;;
11699;SDS011;5906;51.660;6.674;2023-04-30T05:10:57;20.53;;;13.23;;
11699;SDS011;5906;51.660;6.674;2023-04-30T05:13:23;22.20;;;13.90;;
11699;SDS011;5906;51.660;6.674;2023-04-30T05:15:51;19.30;;;12.70;;
11699;SDS011;5906;51.660;6.674;2023-04-30T05:18:18;20.83;;;13.20;;
11699;SDS011;5906;51.660;6.674;2023-04-30T05:20:46;18.23;;;13.23;;
11699;SDS011;5906;51.660;6.674;2023-04-30T05:23:12;20.93;;;12.67;;
11699;SDS011;5906;51.660;6.674;2023-04-30T05:25:39;22.40;;;13.20;;
11699;SDS011;5906;51.660;6.674;2023-04-30T05:28:06;21.43;;;13.17;;
11699;SDS011;5906;51.660;6.674;2023-04-30T05:30:33;20.30;;;12.30;;
11699;SDS011;5906;51.660;6.674;2023-04-30T05:32:59;25.07;;;12.97;;
11699;SDS011;5906;51.660;6.674;2023-04-30T05:35:26;21.17;;;12.77;;
11699;SDS011;5906;51.660;6.674;2023-04-30T05:37:53;20.80;;;12.23;;
11699;SDS011;5906;51.660;6.674;2023-04-30T05:40:20;21.17;;;12.93;;
11699;SDS011;5906;51.660;6.674;2023-04-30T05:42:46;20.70;;;12.40;;
11699;SDS011;5906;51.660;6.674;2023-04-30T05:45:13;27.63;;;12.53;;
11699;SDS011;5906;51.660;6.674;2023-04-30T05:47:42;20.17;;;13.63;;
11699;SDS011;5906;51.660;6.674;2023-04-30T05:50:09;21.80;;;13.57;;
11699;SDS011;5906;51.660;6.674;2023-04-30T05:52:36;22.13;;;14.37;;
11699;SDS011;5906;51.660;6.674;2023-04-30T05:55:04;22.60;;;14.00;;
11699;SDS011;5906;51.660;6.674;2023-04-30T05:57:31;22.33;;;13.80;;
11699;SDS011;5906;51.660;6.674;2023-04-30T05:59:58;21.40;;;12.87;;
11699;SDS011;5906;51.660;6.674;2023-04-30T06:02:25;20.80;;;15.00;;
11699;SDS011;5906;51.660;6.674;2023-04-30T06:04:51;22.80;;;14.07;;
11699;SDS011;5906;51.660;6.674;2023-04-30T06:07:18;23.93;;;14.30;;
11699;SDS011;5906;51.660;6.674;2023-04-30T06:09:46;21.90;;;14.90;;
11699;SDS011;5906;51.660;6.674;2023-04-30T06:12:13;22.00;;;14.00;;
11699;SDS011;5906;51.660;6.674;2023-04-30T06:14:41;22.27;;;13.57;;
11699;SDS011;5906;51.660;6.674;2023-04-30T06:17:11;23.53;;;12.57;;
11699;SDS011;5906;51.660;6.674;2023-04-30T06:19:38;18.33;;;12.17;;
11699;SDS011;5906;51.660;6.674;2023-04-30T06:22:05;20.53;;;12.17;;
11699;SDS011;5906;51.660;6.674;2023-04-30T06:24:31;16.53;;;11.33;;
11699;SDS011;5906;51.660;6.674;2023-04-30T06:26:58;19.67;;;12.30;;
11699;SDS011;5906;51.660;6.674;2023-04-30T06:29:25;17.77;;;13.07;;
11699;SDS011;5906;51.660;6.674;2023-04-30T06:31:52;19.30;;;11.50;;
11699;SDS011;5906;51.660;6.674;2023-04-30T06:34:19;19.63;;;13.07;;
11699;SDS011;5906;51.660;6.674;2023-04-30T06:36:46;17.50;;;11.13;;
11699;SDS011;5906;51.660;6.674;2023-04-30T06:39:14;17.37;;;11.83;;
11699;SDS011;5906;51.660;6.674;2023-04-30T06:41:41;15.63;;;10.43;;
11699;SDS011;5906;51.660;6.674;2023-04-30T06:44:08;18.63;;;11.00;;
11699;SDS011;5906;51.660;6.674;2023-04-30T06:46:35;19.80;;;10.50;;
11699;SDS011;5906;51.660;6.674;2023-04-30T06:49:02;14.23;;;10.90;;
11699;SDS011;5906;51.660;6.674;2023-04-30T06:51:29;17.53;;;9.97;;
11699;SDS011;5906;51.660;6.674;2023-04-30T06:53:56;23.07;;;10.90;;
11699;SDS011;5906;51.660;6.674;2023-04-30T06:56:23;17.40;;;11.30;;
11699;SDS011;5906;51.660;6.674;2023-04-30T06:58:50;14.23;;;9.70;;
11699;SDS011;5906;51.660;6.674;2023-04-30T07:01:17;13.00;;;9.63;;
11699;SDS011;5906;51.660;6.674;2023-04-30T07:03:44;15.27;;;10.47;;
11699;SDS011;5906;51.660;6.674;2023-04-30T07:06:11;19.77;;;10.37;;
11699;SDS011;5906;51.660;6.674;2023-04-30T07:08:38;14.30;;;9.70;;
11699;SDS011;5906;51.660;6.674;2023-04-30T07:11:06;14.77;;;9.20;;
11699;SDS011;5906;51.660;6.674;2023-04-30T07:13:33;13.30;;;9.60;;
11699;SDS011;5906;51.660;6.674;2023-04-30T07:16:00;21.00;;;10.17;;
11699;SDS011;5906;51.660;6.674;2023-04-30T07:18:27;13.20;;;9.47;;
11699;SDS011;5906;51.660;6.674;2023-04-30T07:20:55;12.20;;;9.40;;
11699;SDS011;5906;51.660;6.674;2023-04-30T07:23:21;16.93;;;10.60;;
11699;SDS011;5906;51.660;6.674;2023-04-30T07:25:48;17.80;;;9.40;;
11699;SDS011;5906;51.660;6.674;2023-04-30T07:28:15;12.50;;;9.83;;
11699;SDS011;5906;51.660;6.674;2023-04-30T07:30:42;11.27;;;8.83;;
11699;SDS011;5906;51.660;6.674;2023-04-30T07:33:11;15.80;;;9.63;;
11699;SDS011;5906;51.660;6.674;2023-04-30T07:35:38;12.50;;;9.30;;
11699;SDS011;5906;51.660;6.674;2023-04-30T07:38:05;13.40;;;8.30;;
11699;SDS011;5906;51.660;6.674;2023-04-30T07:40:32;15.60;;;10.10;;
11699;SDS011;5906;51.660;6.674;2023-04-30T07:43:02;14.17;;;9.20;;
11699;SDS011;5906;51.660;6.674;2023-04-30T07:45:30;16.90;;;9.27;;
11699;SDS011;5906;51.660;6.674;2023-04-30T07:47:59;14.10;;;9.00;;
11699;SDS011;5906;51.660;6.674;2023-04-30T07:50:30;16.67;;;9.70;;
11699;SDS011;5906;51.660;6.674;2023-04-30T07:53:00;15.93;;;9.07;;
11699;SDS011;5906;51.660;6.674;2023-04-30T07:55:27;17.50;;;9.03;;
11699;SDS011;5906;51.660;6.674;2023-04-30T07:57:54;13.07;;;8.60;;
11699;SDS011;5906;51.660;6.674;2023-04-30T08:00:21;11.70;;;8.83;;
11699;SDS011;5906;51.660;6.674;2023-04-30T08:02:49;14.17;;;8.67;;
11699;SDS011;5906;51.660;6.674;2023-04-30T08:05:16;12.00;;;7.50;;
11699;SDS011;5906;51.660;6.674;2023-04-30T08:07:43;14.57;;;8.43;;
11699;SDS011;5906;51.660;6.674;2023-04-30T08:10:11;12.90;;;7.83;;
11699;SDS011;5906;51.660;6.674;2023-04-30T08:12:38;8.93;;;7.27;;
11699;SDS011;5906;51.660;6.674;2023-04-30T08:15:05;11.17;;;7.43;;
11699;SDS011;5906;51.660;6.674;2023-04-30T08:17:33;10.80;;;7.20;;
11699;SDS011;5906;51.660;6.674;2023-04-30T08:20:02;10.03;;;6.90;;
11699;SDS011;5906;51.660;6.674;2023-04-30T08:22:30;10.57;;;7.00;;
11699;SDS011;5906;51.660;6.674;2023-04-30T08:24:57;12.50;;;6.97;;
11699;SDS011;5906;51.660;6.674;2023-04-30T08:27:27;10.50;;;6.40;;
11699;SDS011;5906;51.660;6.674;2023-04-30T08:29:56;10.57;;;6.63;;
11699;SDS011;5906;51.660;6.674;2023-04-30T08:32:23;11.73;;;7.10;;
11699;SDS011;5906;51.660;6.674;2023-04-30T08:34:50;14.50;;;7.17;;
11699;SDS011;5906;51.660;6.674;2023-04-30T08:37:17;10.23;;;7.27;;
11699;SDS011;5906;51.660;6.674;2023-04-30T08:39:44;11.50;;;6.30;;
11699;SDS011;5906;51.660;6.674;2023-04-30T08:42:12;9.27;;;5.73;;
11699;SDS011;5906;51.660;6.674;2023-04-30T08:44:40;13.43;;;6.40;;
11699;SDS011;5906;51.660;6.674;2023-04-30T08:47:11;7.93;;;5.40;;
11699;SDS011;5906;51.660;6.674;2023-04-30T08:49:40;11.17;;;6.13;;
11699;SDS011;5906;51.660;6.674;2023-04-30T08:52:08;10.30;;;5.73;;
11699;SDS011;5906;51.660;6.674;2023-04-30T08:54:38;9.50;;;5.93;;
11699;SDS011;5906;51.660;6.674;2023-04-30T08:57:05;9.93;;;6.17;;
11699;SDS011;5906;51.660;6.674;2023-04-30T08:59:32;7.77;;;5.70;;
11699;SDS011;5906;51.660;6.674;2023-04-30T09:01:59;7.87;;;5.90;;
11699;SDS011;5906;51.660;6.674;2023-04-30T09:04:27;8.83;;;5.40;;
11699;SDS011;5906;51.660;6.674;2023-04-30T09:06:54;7.97;;;6.17;;
11699;SDS011;5906;51.660;6.674;2023-04-30T09:09:36;9.87;;;5.30;;
11699;SDS011;5906;51.660;6.674;2023-04-30T09:14:40;12.87;;;6.17;;
11699;SDS011;5906;51.660;6.674;2023-04-30T09:17:25;6.50;;;4.53;;
11699;SDS011;5906;51.660;6.674;2023-04-30T09:19:52;8.10;;;5.20;;
11699;SDS011;5906;51.660;6.674;2023-04-30T09:22:23;12.80;;;6.00;;
11699;SDS011;5906;51.660;6.674;2023-04-30T09:24:50;6.20;;;5.10;;
11699;SDS011;5906;51.660;6.674;2023-04-30T09:27:18;8.70;;;4.67;;
11699;SDS011;5906;51.660;6.674;2023-04-30T09:29:46;9.27;;;5.07;;
11699;SDS011;5906;51.660;6.674;2023-04-30T09:32:13;7.07;;;4.83;;
11699;SDS011;5906;51.660;6.674;2023-04-30T09:34:40;8.10;;;4.73;;
11699;SDS011;5906;51.660;6.674;2023-04-30T09:37:08;6.80;;;5.00;;
11699;SDS011;5906;51.660;6.674;2023-04-30T09:39:53;10.00;;;5.17;;
11699;SDS011;5906;51.660;6.674;2023-04-30T09:42:21;7.23;;;4.20;;
11699;SDS011;5906;51.660;6.674;2023-04-30T09:44:48;8.90;;;3.70;;
11699;SDS011;5906;51.660;6.674;2023-04-30T09:47:15;4.20;;;3.40;;
11699;SDS011;5906;51.660;6.674;2023-04-30T09:49:48;5.07;;;3.60;;
11699;SDS011;5906;51.660;6.674;2023-04-30T09:52:19;5.20;;;4.20;;
11699;SDS011;5906;51.660;6.674;2023-04-30T09:54:46;6.60;;;3.70;;
11699;SDS011;5906;51.660;6.674;2023-04-30T09:57:14;4.00;;;3.03;;
11699;SDS011;5906;51.660;6.674;2023-04-30T09:59:43;3.87;;;2.77;;
11699;SDS011;5906;51.660;6.674;2023-04-30T10:02:12;6.43;;;3.00;;
11699;SDS011;5906;51.660;6.674;2023-04-30T10:04:42;5.17;;;3.40;;
11699;SDS011;5906;51.660;6.674;2023-04-30T10:09:56;6.37;;;3.67;;
11699;SDS011;5906;51.660;6.674;2023-04-30T10:12:28;3.30;;;3.00;;
11699;SDS011;5906;51.660;6.674;2023-04-30T10:15:05;4.83;;;3.13;;
11699;SDS011;5906;51.660;6.674;2023-04-30T10:17:40;5.30;;;3.07;;
11699;SDS011;5906;51.660;6.674;2023-04-30T10:20:11;10.83;;;4.40;;
11699;SDS011;5906;51.660;6.674;2023-04-30T10:22:39;4.53;;;3.50;;
11699;SDS011;5906;51.660;6.674;2023-04-30T10:25:07;4.93;;;4.43;;
11699;SDS011;5906;51.660;6.674;2023-04-30T10:27:36;4.10;;;2.93;;
11699;SDS011;5906;51.660;6.674;2023-04-30T10:30:05;5.77;;;3.60;;
11699;SDS011;5906;51.660;6.674;2023-04-30T10:33:22;5.00;;;4.00;;
11699;SDS011;5906;51.660;6.674;2023-04-30T10:35:34;7.20;;;3.80;;
11699;SDS011;5906;51.660;6.674;2023-04-30T10:38:21;6.77;;;3.57;;
11699;SDS011;5906;51.660;6.674;2023-04-30T10:40:53;8.20;;;3.97;;
11699;SDS011;5906;51.660;6.674;2023-04-30T10:43:32;6.10;;;3.90;;
11699;SDS011;5906;51.660;6.674;2023-04-30T10:46:01;6.83;;;4.43;;
11699;SDS011;5906;51.660;6.674;2023-04-30T10:48:29;10.90;;;4.90;;
11699;SDS011;5906;51.660;6.674;2023-04-30T10:51:00;6.07;;;3.90;;
11699;SDS011;5906;51.660;6.674;2023-04-30T10:53:30;5.90;;;3.60;;
11699;SDS011;5906;51.660;6.674;2023-04-30T10:55:59;8.60;;;4.30;;
11699;SDS011;5906;51.660;6.674;2023-04-30T10:58:33;6.47;;;3.90;;
11699;SDS011;5906;51.660;6.674;2023-04-30T11:03:42;7.60;;;4.17;;
11699;SDS011;5906;51.660;6.674;2023-04-30T11:06:47;5.40;;;3.93;;
11699;SDS011;5906;51.660;6.674;2023-04-30T11:09:41;5.47;;;4.20;;
11699;SDS011;5906;51.660;6.674;2023-04-30T11:14:42;5.60;;;4.20;;
11699;SDS011;5906;51.660;6.674;2023-04-30T11:17:11;6.67;;;4.27;;
11699;SDS011;5906;51.660;6.674;2023-04-30T11:19:45;7.40;;;4.00;;
11699;SDS011;5906;51.660;6.674;2023-04-30T11:22:14;9.10;;;4.00;;
11699;SDS011;5906;51.660;6.674;2023-04-30T11:27:18;4.63;;;3.50;;
11699;SDS011;5906;51.660;6.674;2023-04-30T11:29:49;7.73;;;3.40;;
11699;SDS011;5906;51.660;6.674;2023-04-30T11:32:18;4.10;;;3.50;;
11699;SDS011;5906;51.660;6.674;2023-04-30T11:34:46;5.73;;;4.27;;
11699;SDS011;5906;51.660;6.674;2023-04-30T11:37:27;5.67;;;4.20;;
11699;SDS011;5906;51.660;6.674;2023-04-30T11:39:59;8.97;;;4.57;;
11699;SDS011;5906;51.660;6.674;2023-04-30T11:42:29;5.23;;;2.70;;
11699;SDS011;5906;51.660;6.674;2023-04-30T11:47:38;6.27;;;3.43;;
11699;SDS011;5906;51.660;6.674;2023-04-30T11:50:12;5.10;;;3.37;;
11699;SDS011;5906;51.660;6.674;2023-04-30T11:52:42;3.67;;;3.00;;
11699;SDS011;5906;51.660;6.674;2023-04-30T11:55:15;5.53;;;3.67;;
11699;SDS011;5906;51.660;6.674;2023-04-30T11:57:47;3.80;;;3.07;;
11699;SDS011;5906;51.660;6.674;2023-04-30T12:00:16;6.00;;;3.43;;
11699;SDS011;5906;51.660;6.674;2023-04-30T12:02:48;7.10;;;2.90;;
11699;SDS011;5906;51.660;6.674;2023-04-30T12:05:16;4.23;;;3.20;;
11699;SDS011;5906;51.660;6.674;2023-04-30T12:07:46;5.87;;;3.43;;
11699;SDS011;5906;51.660;6.674;2023-04-30T12:10:13;4.30;;;3.30;;
11699;SDS011;5906;51.660;6.674;2023-04-30T12:12:44;4.07;;;2.80;;
11699;SDS011;5906;51.660;6.674;2023-04-30T12:15:12;7.83;;;2.87;;
11699;SDS011;5906;51.660;6.674;2023-04-30T12:17:41;5.90;;;3.03;;
11699;SDS011;5906;51.660;6.674;2023-04-30T12:20:10;2.63;;;2.30;;
11699;SDS011;5906;51.660;6.674;2023-04-30T12:22:41;4.50;;;2.43;;
11699;SDS011;5906;51.660;6.674;2023-04-30T12:25:12;6.90;;;3.00;;
11699;SDS011;5906;51.660;6.674;2023-04-30T12:27:50;4.27;;;2.97;;
11699;SDS011;5906;51.660;6.674;2023-04-30T12:30:19;5.50;;;3.13;;
11699;SDS011;5906;51.660;6.674;2023-04-30T12:32:52;2.67;;;2.40;;
11699;SDS011;5906;51.660;6.674;2023-04-30T12:35:26;5.13;;;3.10;;
11699;SDS011;5906;51.660;6.674;2023-04-30T12:38:04;6.20;;;3.33;;
11699;SDS011;5906;51.660;6.674;2023-04-30T12:40:33;4.83;;;3.50;;
11699;SDS011;5906;51.660;6.674;2023-04-30T12:43:01;5.60;;;3.23;;
11699;SDS011;5906;51.660;6.674;2023-04-30T12:48:24;7.13;;;3.23;;
11699;SDS011;5906;51.660;6.674;2023-04-30T12:50:55;3.70;;;2.20;;
11699;SDS011;5906;51.660;6.674;2023-04-30T12:53:26;4.90;;;2.30;;
11699;SDS011;5906;51.660;6.674;2023-04-30T12:58:38;4.40;;;2.43;;
11699;SDS011;5906;51.660;6.674;2023-04-30T13:01:27;3.63;;;2.50;;
11699;SDS011;5906;51.660;6.674;2023-04-30T13:03:53;3.37;;;2.40;;
11699;SDS011;5906;51.660;6.674;2023-04-30T13:06:21;4.37;;;2.30;;
11699;SDS011;5906;51.660;6.674;2023-04-30T13:08:49;7.53;;;2.50;;
11699;SDS011;5906;51.660;6.674;2023-04-30T13:11:21;3.70;;;2.20;;
11699;SDS011;5906;51.660;6.674;2023-04-30T13:13:52;4.00;;;1.97;;
11699;SDS011;5906;51.660;6.674;2023-04-30T13:16:20;4.43;;;2.10;;
11699;SDS011;5906;51.660;6.674;2023-04-30T13:18:50;3.93;;;2.80;;
11699;SDS011;5906;51.660;6.674;2023-04-30T13:21:17;3.07;;;2.40;;
11699;SDS011;5906;51.660;6.674;2023-04-30T13:23:44;3.40;;;2.10;;
11699;SDS011;5906;51.660;6.674;2023-04-30T13:26:19;7.60;;;2.13;;
11699;SDS011;5906;51.660;6.674;2023-04-30T13:28:47;2.40;;;1.83;;
11699;SDS011;5906;51.660;6.674;2023-04-30T13:31:14;3.00;;;1.90;;
11699;SDS011;5906;51.660;6.674;2023-04-30T13:33:41;3.87;;;2.20;;
11699;SDS011;5906;51.660;6.674;2023-04-30T13:36:09;3.50;;;2.47;;
11699;SDS011;5906;51.660;6.674;2023-04-30T13:38:37;3.03;;;2.10;;
11699;SDS011;5906;51.660;6.674;2023-04-30T13:41:05;3.73;;;2.20;;
11699;SDS011;5906;51.660;6.674;2023-04-30T13:43:32;5.07;;;2.30;;
11699;SDS011;5906;51.660;6.674;2023-04-30T13:45:59;7.43;;;2.40;;
11699;SDS011;5906;51.660;6.674;2023-04-30T13:48:27;3.20;;;1.80;;
11699;SDS011;5906;51.660;6.674;2023-04-30T13:50:56;6.90;;;2.40;;
11699;SDS011;5906;51.660;6.674;2023-04-30T13:53:23;1.80;;;1.50;;
11699;SDS011;5906;51.660;6.674;2023-04-30T13:55:50;3.67;;;1.90;;
11699;SDS011;5906;51.660;6.674;2023-04-30T13:58:17;3.87;;;2.27;;
11699;SDS011;5906;51.660;6.674;2023-04-30T14:00:44;4.33;;;2.37;;
11699;SDS011;5906;51.660;6.674;2023-04-30T14:03:12;4.40;;;2.10;;
11699;SDS011;5906;51.660;6.674;2023-04-30T14:05:40;3.00;;;2.17;;
11699;SDS011;5906;51.660;6.674;2023-04-30T14:08:07;2.37;;;1.70;;
11699;SDS011;5906;51.660;6.674;2023-04-30T14:10:34;4.63;;;1.90;;
11699;SDS011;5906;51.660;6.674;2023-04-30T14:13:02;2.53;;;1.90;;
11699;SDS011;5906;51.660;6.674;2023-04-30T14:15:29;3.90;;;2.30;;
11699;SDS011;5906;51.660;6.674;2023-04-30T14:17:57;3.50;;;2.00;;
11699;SDS011;5906;51.660;6.674;2023-04-30T14:20:25;2.13;;;1.93;;
11699;SDS011;5906;51.660;6.674;2023-04-30T14:22:52;3.33;;;1.90;;
11699;SDS011;5906;51.660;6.674;2023-04-30T14:25:19;2.67;;;1.90;;
11699;SDS011;5906;51.660;6.674;2023-04-30T14:27:46;3.47;;;1.67;;
11699;SDS011;5906;51.660;6.674;2023-04-30T14:30:13;2.23;;;2.03;;
11699;SDS011;5906;51.660;6.674;2023-04-30T14:32:40;2.17;;;1.73;;
11699;SDS011;5906;51.660;6.674;2023-04-30T14:35:07;4.60;;;1.90;;
11699;SDS011;5906;51.660;6.674;2023-04-30T14:37:35;3.30;;;1.97;;
11699;SDS011;5906;51.660;6.674;2023-04-30T14:40:03;2.27;;;1.70;;
11699;SDS011;5906;51.660;6.674;2023-04-30T14:42:32;2.20;;;1.90;;
11699;SDS011;5906;51.660;6.674;2023-04-30T14:44:59;2.70;;;1.93;;
11699;SDS011;5906;51.660;6.674;2023-04-30T14:47:26;3.73;;;2.07;;
11699;SDS011;5906;51.660;6.674;2023-04-30T14:49:54;2.47;;;1.90;;
11699;SDS011;5906;51.660;6.674;2023-04-30T14:52:22;2.70;;;1.87;;
11699;SDS011;5906;51.660;6.674;2023-04-30T14:54:49;2.47;;;1.93;;
11699;SDS011;5906;51.660;6.674;2023-04-30T14:57:17;4.40;;;1.80;;
11699;SDS011;5906;51.660;6.674;2023-04-30T14:59:44;2.60;;;1.97;;
11699;SDS011;5906;51.660;6.674;2023-04-30T15:02:11;4.07;;;1.90;;
11699;SDS011;5906;51.660;6.674;2023-04-30T15:04:40;6.63;;;1.90;;
11699;SDS011;5906;51.660;6.674;2023-04-30T15:07:10;2.17;;;1.97;;
11699;SDS011;5906;51.660;6.674;2023-04-30T15:09:37;1.90;;;1.70;;
11699;SDS011;5906;51.660;6.674;2023-04-30T15:12:04;2.03;;;1.70;;
11699;SDS011;5906;51.660;6.674;2023-04-30T15:14:32;5.80;;;2.00;;
11699;SDS011;5906;51.660;6.674;2023-04-30T15:16:59;2.77;;;1.80;;
11699;SDS011;5906;51.660;6.674;2023-04-30T15:19:26;2.60;;;1.73;;
11699;SDS011;5906;51.660;6.674;2023-04-30T15:21:53;2.57;;;1.87;;
11699;SDS011;5906;51.660;6.674;2023-04-30T15:24:20;2.60;;;1.90;;
11699;SDS011;5906;51.660;6.674;2023-04-30T15:26:47;1.77;;;1.50;;
11699;SDS011;5906;51.660;6.674;2023-04-30T15:29:16;4.90;;;2.07;;
11699;SDS011;5906;51.660;6.674;2023-04-30T15:31:43;7.23;;;2.27;;
11699;SDS011;5906;51.660;6.674;2023-04-30T15:34:10;3.47;;;2.10;;
11699;SDS011;5906;51.660;6.674;2023-04-30T15:36:37;3.17;;;1.87;;
11699;SDS011;5906;51.660;6.674;2023-04-30T15:39:04;4.17;;;1.97;;